Time;durP1;ratioP1;P1;durP2;ratioP2;P2;SDS_P1;SDS_P2;PMS_P1;PMS_P2;Temp;Humidity;BMP_temperature;BMP_pressure;BME280_temperature;BME280_humidity;BME280_pressure;Samples;Min_cycle;Max_cycle;Signal;HPM_P1;HPM_P2
2023/02/04 00:00:22;;;;;;;17.45;4.20;;;8.20;99.90;;;;;;4988657;28;20049;-72
2023/02/04 00:02:49;;;;;;;17.65;2.72;;;8.20;99.90;;;;;;4988146;28;20069;-71
2023/02/04 00:05:16;;;;;;;14.05;1.75;;;8.20;99.90;;;;;;4983082;28;20090;-72
2023/02/04 00:07:42;;;;;;;20.52;2.80;;;8.20;99.90;;;;;;4979544;28;20030;-71
2023/02/04 00:10:08;;;;;;;9.43;1.92;;;8.10;99.90;;;;;;4981057;28;20465;-70
2023/02/04 00:12:34;;;;;;;16.95;2.42;;;8.10;99.90;;;;;;4988330;28;20034;-71
2023/02/04 00:15:00;;;;;;;14.60;1.88;;;8.20;99.90;;;;;;4988045;28;20100;-72
2023/02/04 00:17:25;;;;;;;20.80;2.30;;;8.10;99.90;;;;;;4987317;28;20589;-72
2023/02/04 00:19:51;;;;;;;24.00;3.45;;;8.10;99.90;;;;;;4997181;28;20030;-70
2023/02/04 00:22:16;;;;;;;19.30;3.13;;;8.10;99.90;;;;;;4984835;28;20410;-71
2023/02/04 00:24:47;;;;;;;13.95;2.83;;;8.00;99.90;;;;;;4986260;28;20038;-70
2023/02/04 00:27:13;;;;;;;17.02;2.05;;;8.00;99.90;;;;;;4985568;28;20026;-71
2023/02/04 00:29:39;;;;;;;7.93;1.98;;;7.90;99.90;;;;;;4988489;28;20034;-71
2023/02/04 00:32:04;;;;;;;15.07;2.88;;;7.90;99.90;;;;;;4987283;28;20723;-71
2023/02/04 00:34:30;;;;;;;21.63;3.25;;;7.80;99.90;;;;;;4982775;28;20026;-72
2023/02/04 00:36:55;;;;;;;19.63;3.17;;;7.80;99.90;;;;;;4988602;28;20039;-70
2023/02/04 00:39:21;;;;;;;28.52;3.33;;;7.70;99.90;;;;;;4984844;28;20046;-71
2023/02/04 00:41:47;;;;;;;10.55;2.15;;;7.60;99.90;;;;;;4988508;28;20034;-71
2023/02/04 00:44:13;;;;;;;12.38;2.28;;;7.60;99.90;;;;;;4987642;28;20109;-71
2023/02/04 00:46:40;;;;;;;21.60;3.72;;;7.50;99.90;;;;;;4986320;28;20129;-70
2023/02/04 00:49:09;;;;;;;16.02;2.35;;;7.50;99.90;;;;;;4987940;28;20038;-71
2023/02/04 00:51:36;;;;;;;17.95;3.60;;;7.50;99.90;;;;;;4988031;28;20084;-71
2023/02/04 00:54:01;;;;;;;22.95;2.33;;;7.40;99.90;;;;;;4987657;28;20022;-71
2023/02/04 00:56:27;;;;;;;27.48;2.63;;;7.40;99.90;;;;;;4987470;28;20499;-71
2023/02/04 00:58:53;;;;;;;23.33;3.13;;;7.40;99.90;;;;;;4986372;28;20061;-71
2023/02/04 01:01:18;;;;;;;18.20;2.08;;;7.30;99.90;;;;;;4986887;28;20037;-70
2023/02/04 01:03:44;;;;;;;21.40;4.40;;;7.30;99.90;;;;;;4987635;28;20083;-71
2023/02/04 01:06:10;;;;;;;12.85;2.63;;;7.30;99.90;;;;;;4987641;28;20077;-73
2023/02/04 01:08:36;;;;;;;13.98;2.58;;;7.30;99.90;;;;;;4986626;28;20510;-71
2023/02/04 01:11:01;;;;;;;26.65;4.28;;;7.20;99.90;;;;;;4987626;28;20107;-71
2023/02/04 01:13:27;;;;;;;18.25;3.08;;;7.20;99.90;;;;;;4988338;28;20038;-69
2023/02/04 01:15:52;;;;;;;24.13;3.30;;;7.20;99.90;;;;;;4990395;28;20030;-70
2023/02/04 01:18:18;;;;;;;25.23;3.17;;;7.20;99.90;;;;;;4990061;28;20035;-71
2023/02/04 01:20:44;;;;;;;17.20;2.65;;;7.20;99.90;;;;;;4990178;28;20145;-71
2023/02/04 01:23:09;;;;;;;23.25;3.58;;;7.30;99.90;;;;;;4987928;28;20041;-72
2023/02/04 01:25:35;;;;;;;21.05;2.22;;;7.30;99.90;;;;;;4983083;28;20117;-71
2023/02/04 01:28:00;;;;;;;21.40;3.97;;;7.30;99.90;;;;;;4984531;28;20508;-71
2023/02/04 01:30:26;;;;;;;31.83;3.78;;;7.30;99.90;;;;;;4988519;28;20616;-71
2023/02/04 01:32:52;;;;;;;16.13;2.78;;;7.40;99.90;;;;;;4990255;28;20034;-71
2023/02/04 01:35:17;;;;;;;14.93;2.70;;;7.30;99.90;;;;;;4989829;28;20371;-71
2023/02/04 01:37:43;;;;;;;20.10;2.15;;;7.40;99.90;;;;;;4989920;28;20039;-70
2023/02/04 01:40:10;;;;;;;22.13;2.30;;;7.40;99.90;;;;;;4987788;28;20134;-70
2023/02/04 01:42:36;;;;;;;26.45;2.95;;;7.40;99.90;;;;;;4987654;28;20042;-70
2023/02/04 01:45:05;;;;;;;20.73;3.10;;;7.40;99.90;;;;;;4992283;28;20060;-71
2023/02/04 01:47:31;;;;;;;22.38;2.03;;;7.30;99.90;;;;;;4993956;28;20111;-71
2023/02/04 01:49:57;;;;;;;19.88;3.95;;;7.30;99.90;;;;;;4994181;28;20034;-70
2023/02/04 01:52:23;;;;;;;27.90;3.05;;;7.40;99.90;;;;;;4992242;28;20038;-70
2023/02/04 01:54:49;;;;;;;16.95;3.80;;;7.30;99.90;;;;;;4993586;28;20038;-71
2023/02/04 01:57:15;;;;;;;19.83;3.05;;;7.30;99.90;;;;;;4994011;28;20038;-70
2023/02/04 01:59:45;;;;;;;15.65;3.33;;;7.20;99.90;;;;;;4988008;28;20128;-70
2023/02/04 02:02:40;;;;;;;17.23;3.13;;;7.20;99.90;;;;;;4994120;28;20041;-71
2023/02/04 02:05:08;;;;;;;14.73;2.50;;;7.20;99.90;;;;;;4991949;28;20113;-70
2023/02/04 02:07:34;;;;;;;22.15;3.88;;;7.20;99.90;;;;;;4993303;28;20498;-70
2023/02/04 02:10:01;;;;;;;12.98;2.17;;;7.20;99.90;;;;;;4993277;28;20040;-71
2023/02/04 02:12:26;;;;;;;24.85;3.92;;;7.20;99.90;;;;;;4993627;28;20034;-70
2023/02/04 02:14:52;;;;;;;22.65;2.67;;;7.20;99.90;;;;;;4993921;28;20372;-70
2023/02/04 02:17:18;;;;;;;23.05;3.58;;;7.20;99.90;;;;;;4992684;28;20038;-71
2023/02/04 02:19:43;;;;;;;18.50;2.55;;;7.20;99.90;;;;;;4992339;28;20496;-70
2023/02/04 02:22:29;;;;;;;12.10;2.28;;;7.20;99.90;;;;;;4992648;28;20046;-70
2023/02/04 02:24:55;;;;;;;17.55;2.55;;;7.20;99.90;;;;;;4989796;28;20088;-71
2023/02/04 02:27:21;;;;;;;20.10;2.17;;;7.10;99.90;;;;;;4992069;28;20461;-75
2023/02/04 02:29:47;;;;;;;20.42;2.78;;;7.10;99.90;;;;;;4992859;28;20548;-70
2023/02/04 02:32:14;;;;;;;23.77;2.38;;;7.00;99.90;;;;;;4992497;28;20066;-71
2023/02/04 02:34:41;;;;;;;20.80;2.42;;;7.00;99.90;;;;;;4992011;28;20081;-71
2023/02/04 02:37:10;;;;;;;16.58;3.30;;;6.90;99.90;;;;;;4990809;28;20527;-70
2023/02/04 02:39:38;;;;;;;24.60;3.13;;;6.90;99.90;;;;;;4991750;28;20066;-70
2023/02/04 02:42:04;;;;;;;18.05;2.40;;;6.90;99.90;;;;;;4990054;28;20058;-71
2023/02/04 02:44:30;;;;;;;18.92;3.00;;;6.90;99.90;;;;;;4991243;28;20556;-71
2023/02/04 02:46:56;;;;;;;17.67;2.83;;;6.90;99.90;;;;;;4991355;28;20034;-69
2023/02/04 02:49:21;;;;;;;10.75;2.88;;;6.90;99.90;;;;;;4989802;28;20081;-70
2023/02/04 02:51:48;;;;;;;16.05;3.42;;;7.00;99.90;;;;;;4990583;28;20104;-70
2023/02/04 02:54:27;;;;;;;19.52;2.88;;;7.00;99.90;;;;;;4990534;28;20522;-70
2023/02/04 02:56:54;;;;;;;24.98;2.65;;;7.00;99.90;;;;;;4989023;28;20093;-70
2023/02/04 02:59:19;;;;;;;21.48;2.47;;;7.10;99.90;;;;;;4996133;28;20402;-71
2023/02/04 03:01:49;;;;;;;16.50;2.00;;;7.10;99.90;;;;;;4992779;28;20030;-71
2023/02/04 03:04:17;;;;;;;21.90;2.83;;;7.10;99.90;;;;;;4989369;28;20038;-71
2023/02/04 03:06:42;;;;;;;17.25;2.55;;;7.20;99.90;;;;;;4989657;28;20129;-70
2023/02/04 03:09:08;;;;;;;20.23;3.63;;;7.20;99.90;;;;;;4988597;28;20141;-70
2023/02/04 03:11:34;;;;;;;16.13;1.92;;;7.20;99.90;;;;;;4989997;28;20073;-70
2023/02/04 03:14:00;;;;;;;20.60;3.70;;;7.20;99.90;;;;;;4989758;28;20034;-71
2023/02/04 03:16:28;;;;;;;20.90;2.72;;;7.20;99.90;;;;;;4990706;28;20498;-71
2023/02/04 03:18:54;;;;;;;17.60;2.30;;;7.10;99.90;;;;;;4989269;28;20026;-71
2023/02/04 03:21:20;;;;;;;22.33;2.15;;;7.10;99.90;;;;;;4990101;28;20045;-71
2023/02/04 03:23:46;;;;;;;17.08;2.83;;;7.00;99.90;;;;;;4990156;28;20139;-70
2023/02/04 03:26:11;;;;;;;20.98;1.98;;;7.00;99.90;;;;;;4990443;28;20038;-71
2023/02/04 03:28:41;;;;;;;13.57;2.90;;;6.90;99.90;;;;;;4990371;28;20128;-71
2023/02/04 03:31:07;;;;;;;24.50;3.40;;;6.80;99.90;;;;;;4990394;28;20062;-71
2023/02/04 03:33:34;;;;;;;16.98;2.17;;;6.70;99.90;;;;;;4989887;28;20826;-71
2023/02/04 03:36:00;;;;;;;19.27;2.85;;;6.70;99.90;;;;;;4989622;28;20085;-71
2023/02/04 03:38:26;;;;;;;14.02;2.42;;;6.60;99.90;;;;;;4989294;28;20026;-71
2023/02/04 03:40:52;;;;;;;23.17;3.55;;;6.60;99.90;;;;;;4989708;28;20042;-71
2023/02/04 03:43:18;;;;;;;20.85;2.83;;;6.60;99.90;;;;;;4989226;28;20117;-71
2023/02/04 03:45:43;;;;;;;18.50;3.63;;;6.50;99.90;;;;;;4989157;28;20065;-71
2023/02/04 03:48:09;;;;;;;22.70;4.68;;;6.50;99.90;;;;;;4989492;28;20034;-70
2023/02/04 03:50:35;;;;;;;17.23;2.85;;;6.40;99.90;;;;;;4989315;28;20045;-71
2023/02/04 03:53:00;;;;;;;18.48;3.13;;;6.40;99.90;;;;;;4989237;28;20081;-70
2023/02/04 03:55:26;;;;;;;19.65;2.88;;;6.40;99.90;;;;;;4989005;28;20035;-71
2023/02/04 03:57:52;;;;;;;17.98;2.80;;;6.30;99.90;;;;;;4989157;28;20494;-71
2023/02/04 04:00:18;;;;;;;16.15;2.05;;;6.30;99.90;;;;;;4989202;28;20118;-71
2023/02/04 04:02:44;;;;;;;20.65;2.85;;;6.30;99.90;;;;;;4988640;28;20494;-71
2023/02/04 04:05:10;;;;;;;22.88;4.20;;;6.30;99.90;;;;;;4988831;28;20040;-71
2023/02/04 04:07:36;;;;;;;16.35;2.78;;;6.30;99.90;;;;;;4988404;28;20035;-70
2023/02/04 04:10:02;;;;;;;16.33;2.70;;;6.30;99.90;;;;;;4989028;28;20097;-71
2023/02/04 04:12:28;;;;;;;18.63;3.05;;;6.40;99.90;;;;;;4988764;28;20030;-70
2023/02/04 04:14:53;;;;;;;28.92;3.38;;;6.40;99.90;;;;;;4988890;28;20121;-73
2023/02/04 04:17:19;;;;;;;18.17;2.80;;;6.40;99.90;;;;;;4988480;28;20065;-71
2023/02/04 04:19:44;;;;;;;13.68;2.40;;;6.40;99.90;;;;;;4984491;28;20042;-72
2023/02/04 04:22:10;;;;;;;14.38;2.00;;;6.40;99.90;;;;;;4988567;28;20042;-71
2023/02/04 04:24:36;;;;;;;19.02;3.08;;;6.40;99.90;;;;;;4988398;28;20060;-70
2023/02/04 04:27:02;;;;;;;13.52;2.22;;;6.40;99.90;;;;;;4988097;28;20042;-71
2023/02/04 04:29:27;;;;;;;21.90;2.33;;;6.40;99.90;;;;;;4988120;28;20030;-71
2023/02/04 04:31:53;;;;;;;15.60;2.88;;;6.50;99.90;;;;;;4988423;28;20042;-69
2023/02/04 04:34:18;;;;;;;13.60;2.25;;;6.50;99.90;;;;;;4988026;28;20056;-71
2023/02/04 04:36:44;;;;;;;15.30;2.33;;;6.50;99.90;;;;;;4988036;28;20034;-71
2023/02/04 04:39:09;;;;;;;18.08;2.53;;;6.50;99.90;;;;;;4986161;28;20417;-72
2023/02/04 04:41:35;;;;;;;23.65;2.80;;;6.50;99.90;;;;;;4984556;28;20478;-70
2023/02/04 04:44:01;;;;;;;19.63;2.25;;;6.50;99.90;;;;;;4987887;28;20042;-70
2023/02/04 04:46:26;;;;;;;21.80;2.90;;;6.50;99.90;;;;;;4987349;28;20114;-71
2023/02/04 04:48:52;;;;;;;18.35;3.42;;;6.40;99.90;;;;;;4988128;28;20046;-70
2023/02/04 04:51:17;;;;;;;18.30;1.98;;;6.40;99.90;;;;;;4987908;28;20049;-71
2023/02/04 04:53:43;;;;;;;23.00;2.65;;;6.40;99.90;;;;;;4987529;28;20036;-71
2023/02/04 04:56:08;;;;;;;21.23;2.70;;;6.40;99.90;;;;;;4988068;28;20422;-70
2023/02/04 04:58:34;;;;;;;31.38;3.72;;;6.30;99.90;;;;;;4985166;28;20045;-71
2023/02/04 05:01:00;;;;;;;18.90;3.25;;;6.40;99.90;;;;;;4987472;28;20050;-71
2023/02/04 05:03:26;;;;;;;24.33;3.80;;;6.40;99.90;;;;;;4987454;28;20450;-71
2023/02/04 05:05:51;;;;;;;15.98;2.58;;;6.40;99.90;;;;;;4987844;28;20035;-71
2023/02/04 05:08:18;;;;;;;17.88;2.42;;;6.40;99.90;;;;;;4985799;28;20034;-71
2023/02/04 05:10:44;;;;;;;19.08;2.33;;;6.30;99.90;;;;;;4987636;28;20042;-71
2023/02/04 05:13:10;;;;;;;13.90;1.98;;;6.30;99.90;;;;;;4987588;28;20035;-71
2023/02/04 05:15:35;;;;;;;12.63;2.80;;;6.20;99.90;;;;;;4987491;28;20097;-70
2023/02/04 05:18:01;;;;;;;20.25;2.53;;;6.10;99.90;;;;;;4986716;28;20038;-71
2023/02/04 05:20:27;;;;;;;15.30;2.70;;;6.10;99.90;;;;;;4993967;28;20052;-70
2023/02/04 05:22:54;;;;;;;12.38;1.92;;;6.00;99.90;;;;;;4994481;28;20058;-70
2023/02/04 05:25:21;;;;;;;12.75;3.00;;;6.00;99.90;;;;;;4994105;28;20121;-69
2023/02/04 05:27:47;;;;;;;21.48;2.95;;;5.90;99.90;;;;;;4993687;28;20042;-71
2023/02/04 05:30:13;;;;;;;23.63;4.72;;;5.90;99.90;;;;;;4993854;28;20031;-68
2023/02/04 05:32:39;;;;;;;16.42;2.80;;;5.80;99.90;;;;;;4993565;28;20038;-71
2023/02/04 05:35:06;;;;;;;19.70;2.50;;;5.80;99.90;;;;;;4993959;28;20458;-70
2023/02/04 05:37:31;;;;;;;14.95;3.50;;;5.80;99.90;;;;;;4993588;28;20045;-71
2023/02/04 05:39:57;;;;;;;20.77;3.42;;;5.70;99.90;;;;;;4991857;28;20038;-71
2023/02/04 05:42:23;;;;;;;13.73;3.30;;;5.70;99.90;;;;;;4993440;28;20491;-72
2023/02/04 05:44:48;;;;;;;24.23;4.45;;;5.70;99.90;;;;;;4993982;28;20038;-71
2023/02/04 05:47:14;;;;;;;27.60;3.85;;;5.70;99.90;;;;;;4993147;28;20068;-71
2023/02/04 05:49:40;;;;;;;17.20;2.42;;;5.60;99.90;;;;;;4993873;28;20075;-71
2023/02/04 05:52:05;;;;;;;14.55;3.63;;;5.60;99.90;;;;;;4993761;28;20042;-71
2023/02/04 05:54:31;;;;;;;21.00;3.13;;;5.60;99.90;;;;;;4993589;28;20137;-70
2023/02/04 05:56:57;;;;;;;16.20;3.13;;;5.60;99.90;;;;;;4993758;28;20521;-71
2023/02/04 05:59:22;;;;;;;30.00;3.75;;;5.70;99.90;;;;;;4992959;28;20038;-71
2023/02/04 06:01:48;;;;;;;17.95;3.10;;;5.80;99.90;;;;;;4994053;28;20394;-71
2023/02/04 06:04:16;;;;;;;15.93;2.90;;;5.80;99.90;;;;;;4993356;28;20065;-71
2023/02/04 06:06:43;;;;;;;14.27;2.40;;;5.80;99.90;;;;;;4993094;28;20038;-71
2023/02/04 06:09:09;;;;;;;10.02;1.95;;;5.90;99.90;;;;;;4993636;28;20137;-70
2023/02/04 06:11:34;;;;;;;11.73;3.05;;;5.90;99.90;;;;;;4993595;28;20052;-70
2023/02/04 06:14:00;;;;;;;14.30;3.25;;;5.90;99.90;;;;;;4992998;28;20038;-69
2023/02/04 06:16:26;;;;;;;15.02;2.80;;;5.90;99.90;;;;;;4993517;28;20065;-71
2023/02/04 06:18:51;;;;;;;15.18;2.42;;;5.90;99.90;;;;;;4991778;28;20038;-70
2023/02/04 06:21:17;;;;;;;12.77;2.92;;;5.90;99.90;;;;;;4992512;28;20065;-70
2023/02/04 06:23:43;;;;;;;13.43;2.80;;;5.90;99.90;;;;;;4991748;28;20474;-70
2023/02/04 06:26:09;;;;;;;15.65;2.60;;;5.90;99.90;;;;;;4993371;28;20045;-70
2023/02/04 06:28:34;;;;;;;13.90;2.40;;;5.90;99.90;;;;;;4993213;28;20171;-70
2023/02/04 06:31:00;;;;;;;12.98;3.10;;;6.00;99.90;;;;;;4990954;28;20569;-72
2023/02/04 06:33:25;;;;;;;16.63;3.58;;;6.00;99.90;;;;;;4990061;28;20038;-70
2023/02/04 06:35:51;;;;;;;13.38;3.67;;;6.10;99.90;;;;;;4989152;28;20101;-70
2023/02/04 06:38:18;;;;;;;15.27;2.63;;;6.10;99.90;;;;;;4990252;28;20097;-70
2023/02/04 06:40:43;;;;;;;21.38;3.35;;;6.10;99.90;;;;;;4990209;28;20030;-70
2023/02/04 06:43:09;;;;;;;17.48;2.72;;;6.20;99.90;;;;;;4988282;28;20034;-71
2023/02/04 06:45:35;;;;;;;13.82;3.17;;;6.20;99.90;;;;;;4989926;28;20030;-71
2023/02/04 06:48:00;;;;;;;19.42;3.97;;;6.20;99.90;;;;;;4989931;28;20470;-70
2023/02/04 06:50:26;;;;;;;15.40;2.95;;;6.30;99.90;;;;;;4990177;28;20026;-70
2023/02/04 06:52:52;;;;;;;11.32;3.47;;;6.30;99.90;;;;;;4990101;28;20041;-70
2023/02/04 06:55:17;;;;;;;11.70;3.47;;;6.30;99.90;;;;;;4989696;28;20432;-70
2023/02/04 06:57:43;;;;;;;19.17;3.58;;;6.30;99.90;;;;;;4989321;28;20701;-69
2023/02/04 07:00:10;;;;;;;10.10;2.47;;;6.30;99.90;;;;;;4987192;28;20126;-70
2023/02/04 07:02:38;;;;;;;15.32;3.47;;;6.30;99.90;;;;;;4989736;28;20040;-70
2023/02/04 07:05:04;;;;;;;14.40;2.75;;;6.40;99.90;;;;;;4989408;28;20038;-71
2023/02/04 07:07:29;;;;;;;19.83;3.13;;;6.40;99.90;;;;;;4998434;28;20030;-70
2023/02/04 07:09:55;;;;;;;19.35;3.22;;;6.40;99.90;;;;;;5009427;28;20112;-70
2023/02/04 07:12:21;;;;;;;12.48;3.75;;;6.40;99.90;;;;;;5008931;28;20597;-70
2023/02/04 07:14:46;;;;;;;13.65;2.13;;;6.40;99.90;;;;;;5008827;28;20042;-70
2023/02/04 07:17:12;;;;;;;20.90;3.47;;;6.50;99.90;;;;;;5008667;28;20581;-71
2023/02/04 07:19:37;;;;;;;13.95;2.95;;;6.50;99.90;;;;;;5005785;28;20052;-70
2023/02/04 07:22:04;;;;;;;13.18;2.70;;;6.50;99.90;;;;;;5006057;28;20038;-70
2023/02/04 07:24:29;;;;;;;19.23;3.00;;;6.50;99.90;;;;;;5006318;28;20042;-71
2023/02/04 07:26:55;;;;;;;9.45;2.60;;;6.50;99.90;;;;;;5010068;28;20034;-70
2023/02/04 07:29:21;;;;;;;12.85;2.80;;;6.40;99.90;;;;;;5007940;28;20530;-71
2023/02/04 07:31:49;;;;;;;11.02;1.98;;;6.40;99.90;;;;;;5008287;28;20104;-70
2023/02/04 07:34:15;;;;;;;17.00;2.45;;;6.40;99.90;;;;;;5007050;28;20507;-70
2023/02/04 07:36:41;;;;;;;13.55;2.75;;;6.40;99.90;;;;;;5008562;28;20129;-71
2023/02/04 07:39:07;;;;;;;10.23;2.42;;;6.40;99.90;;;;;;5003894;28;20081;-70
2023/02/04 07:41:33;;;;;;;9.85;2.08;;;6.50;99.90;;;;;;5007175;28;20042;-70
2023/02/04 07:43:58;;;;;;;10.52;2.25;;;6.50;99.90;;;;;;5007455;28;20034;-70
2023/02/04 07:46:24;;;;;;;11.30;2.22;;;6.60;99.90;;;;;;5007513;28;20038;-69
2023/02/04 07:48:50;;;;;;;18.42;3.50;;;6.60;99.90;;;;;;5005838;28;20054;-72
2023/02/04 07:51:15;;;;;;;16.58;2.92;;;6.70;99.90;;;;;;5007800;28;20087;-71
2023/02/04 07:53:41;;;;;;;12.52;2.10;;;6.70;99.90;;;;;;5007006;28;20107;-71
2023/02/04 07:56:06;;;;;;;13.10;2.63;;;6.70;99.90;;;;;;5006358;28;20037;-71
2023/02/04 07:58:32;;;;;;;11.48;2.80;;;6.80;99.90;;;;;;5004292;28;20829;-70
2023/02/04 08:00:58;;;;;;;13.40;3.03;;;6.80;99.90;;;;;;5007899;28;20034;-72
2023/02/04 08:03:23;;;;;;;11.85;2.38;;;6.90;99.90;;;;;;5007108;28;20120;-72
2023/02/04 08:05:49;;;;;;;12.85;2.72;;;6.90;99.90;;;;;;5005910;28;20034;-71
2023/02/04 08:08:15;;;;;;;15.45;2.55;;;6.90;99.90;;;;;;5007536;28;20091;-71
2023/02/04 08:10:41;;;;;;;12.50;2.08;;;6.90;99.90;;;;;;5006886;28;20045;-71
2023/02/04 08:13:06;;;;;;;15.40;2.53;;;6.90;99.90;;;;;;5007322;28;20438;-71
2023/02/04 08:15:32;;;;;;;15.30;2.72;;;6.90;99.90;;;;;;5007249;28;20037;-70
2023/02/04 08:17:57;;;;;;;10.02;2.20;;;7.00;99.90;;;;;;5007734;28;20111;-71
2023/02/04 08:20:23;;;;;;;13.05;2.22;;;7.00;99.90;;;;;;5005881;28;20490;-73
2023/02/04 08:22:49;;;;;;;15.57;3.10;;;7.00;99.90;;;;;;5009049;28;20034;-71
2023/02/04 08:25:15;;;;;;;14.43;2.33;;;7.10;99.90;;;;;;5010526;28;20405;-71
2023/02/04 08:27:41;;;;;;;14.85;3.33;;;7.10;99.90;;;;;;5007597;28;20278;-70
2023/02/04 08:30:08;;;;;;;10.95;2.97;;;7.20;99.90;;;;;;5008540;28;20026;-70
2023/02/04 08:32:34;;;;;;;9.48;2.45;;;7.30;99.90;;;;;;5006899;28;20172;-70
2023/02/04 08:35:00;;;;;;;8.85;2.60;;;7.40;99.90;;;;;;5007047;28;20121;-73
2023/02/04 08:37:26;;;;;;;13.32;2.53;;;7.40;99.90;;;;;;5007665;28;20037;-71
2023/02/04 08:39:52;;;;;;;14.55;2.83;;;7.50;99.90;;;;;;5007554;28;20707;-71
2023/02/04 08:42:17;;;;;;;10.52;2.53;;;7.60;99.90;;;;;;5007025;28;20899;-72
2023/02/04 08:44:43;;;;;;;14.93;2.85;;;7.60;99.90;;;;;;5006518;28;20370;-70
2023/02/04 08:47:09;;;;;;;15.27;3.47;;;7.70;99.90;;;;;;5005361;28;20092;-71
2023/02/04 08:49:36;;;;;;;17.27;3.92;;;7.70;99.90;;;;;;5001776;28;20034;-71
2023/02/04 08:52:03;;;;;;;9.43;3.05;;;7.80;99.90;;;;;;5006811;28;20128;-72
2023/02/04 08:54:29;;;;;;;14.75;3.40;;;7.80;99.90;;;;;;5002310;28;20045;-72
2023/02/04 08:56:54;;;;;;;11.95;3.47;;;7.90;99.90;;;;;;4994990;28;20035;-71
2023/02/04 08:59:24;;;;;;;14.73;3.80;;;8.00;99.90;;;;;;5006359;28;20036;-70
2023/02/04 09:01:51;;;;;;;13.53;3.30;;;8.00;99.90;;;;;;5003144;28;20057;-71
2023/02/04 09:04:17;;;;;;;17.38;3.63;;;8.10;99.90;;;;;;5005123;28;20395;-71
2023/02/04 09:06:43;;;;;;;16.75;2.67;;;8.10;99.90;;;;;;5006469;28;20132;-72
2023/02/04 09:09:09;;;;;;;16.60;4.65;;;8.10;99.90;;;;;;5007701;28;20132;-71
2023/02/04 09:11:34;;;;;;;15.05;3.70;;;8.20;99.90;;;;;;5007739;28;20096;-70
2023/02/04 09:14:00;;;;;;;12.38;3.35;;;8.30;99.90;;;;;;5008215;28;20100;-70
2023/02/04 09:16:25;;;;;;;15.00;3.42;;;8.40;99.90;;;;;;5007462;28;20230;-71
2023/02/04 09:18:51;;;;;;;11.95;3.13;;;8.50;99.90;;;;;;5008594;28;20046;-71
2023/02/04 09:21:17;;;;;;;15.55;3.58;;;8.50;99.90;;;;;;5006982;28;20411;-72
2023/02/04 09:23:43;;;;;;;18.95;3.08;;;8.60;99.90;;;;;;5007156;28;20050;-71
2023/02/04 09:26:09;;;;;;;17.05;2.88;;;8.70;99.90;;;;;;5007549;28;20490;-70
2023/02/04 09:28:35;;;;;;;13.82;3.60;;;8.70;99.90;;;;;;5007116;28;20081;-71
2023/02/04 09:31:00;;;;;;;19.45;3.28;;;8.80;99.90;;;;;;5010415;28;21939;-72
2023/02/04 09:33:26;;;;;;;19.38;3.67;;;8.80;99.90;;;;;;5006930;28;20026;-73
2023/02/04 09:35:52;;;;;;;16.10;3.22;;;9.00;99.90;;;;;;5007483;28;20505;-72
2023/02/04 09:38:17;;;;;;;21.55;3.58;;;9.00;99.90;;;;;;5006187;28;20030;-71
2023/02/04 09:40:56;;;;;;;13.50;3.35;;;9.10;99.90;;;;;;5007571;28;20073;-71
2023/02/04 09:43:28;;;;;;;18.55;3.45;;;9.20;99.90;;;;;;5000165;28;20161;-72
2023/02/04 09:45:55;;;;;;;16.90;2.65;;;9.20;99.90;;;;;;5004239;28;20041;-72
2023/02/04 09:48:22;;;;;;;12.93;3.20;;;9.30;99.90;;;;;;5007043;28;20038;-72
2023/02/04 09:50:56;;;;;;;26.17;3.47;;;9.30;99.90;;;;;;5007291;28;20394;-71
2023/02/04 09:53:23;;;;;;;20.02;3.42;;;9.40;99.90;;;;;;5007630;28;20789;-71
2023/02/04 09:55:50;;;;;;;17.88;4.20;;;9.40;99.90;;;;;;5006686;28;20026;-72
2023/02/04 09:58:21;;;;;;;18.48;2.83;;;9.40;99.90;;;;;;5006804;28;20396;-70
2023/02/04 10:00:55;;;;;;;17.52;3.22;;;9.40;99.90;;;;;;5006238;28;20034;-73
2023/02/04 10:03:21;;;;;;;12.60;3.00;;;9.40;99.90;;;;;;5004507;28;20478;-72
2023/02/04 10:05:47;;;;;;;16.08;2.95;;;9.50;99.90;;;;;;5009149;28;20439;-73
2023/02/04 10:08:16;;;;;;;17.02;4.13;;;9.60;99.90;;;;;;5009911;28;20092;-71
2023/02/04 10:10:42;;;;;;;24.08;2.75;;;9.70;99.90;;;;;;5010010;28;20100;-71
2023/02/04 10:13:19;;;;;;;21.05;3.70;;;9.70;99.90;;;;;;5010090;28;20038;-72
2023/02/04 10:15:47;;;;;;;13.40;3.03;;;9.80;99.90;;;;;;5003811;28;20038;-72
2023/02/04 10:18:27;;;;;;;17.58;3.35;;;9.80;99.90;;;;;;5005186;28;20468;-71
2023/02/04 10:21:14;;;;;;;17.33;2.40;;;9.90;99.90;;;;;;5007179;28;20085;-70
2023/02/04 10:23:41;;;;;;;22.50;4.13;;;9.80;99.90;;;;;;5008815;28;20384;-70
2023/02/04 10:26:10;;;;;;;15.75;3.45;;;9.90;99.90;;;;;;5011718;28;20422;-70
2023/02/04 10:28:37;;;;;;;15.13;3.22;;;9.90;99.90;;;;;;5008638;28;20030;-71
2023/02/04 10:31:02;;;;;;;22.42;3.03;;;10.00;99.90;;;;;;5010693;28;20037;-71
2023/02/04 10:33:28;;;;;;;14.85;3.70;;;10.00;99.90;;;;;;5009430;28;20030;-71
2023/02/04 10:35:55;;;;;;;23.00;2.88;;;10.10;99.90;;;;;;5009996;28;20092;-71
2023/02/04 10:38:21;;;;;;;29.98;3.38;;;10.10;99.90;;;;;;5009293;28;20065;-72
2023/02/04 10:40:47;;;;;;;19.42;3.20;;;10.30;99.90;;;;;;5009618;28;20064;-71
2023/02/04 10:43:20;;;;;;;14.15;3.17;;;10.40;99.90;;;;;;5009740;28;20026;-70
2023/02/04 10:45:57;;;;;;;17.13;2.95;;;10.50;99.90;;;;;;5009666;28;20037;-71
2023/02/04 10:48:24;;;;;;;24.02;3.67;;;10.50;99.90;;;;;;5006515;28;20529;-71
2023/02/04 10:50:49;;;;;;;15.05;3.10;;;10.50;99.90;;;;;;5009428;28;20498;-71
2023/02/04 10:56:05;;;;;;;18.33;3.70;;;10.60;99.90;;;;;;5007346;28;20118;-71
2023/02/04 10:58:31;;;;;;;16.77;2.28;;;10.60;99.90;;;;;;5004481;28;20034;-72
2023/02/04 11:00:57;;;;;;;18.27;3.13;;;10.70;99.90;;;;;;5009597;28;20491;-73
2023/02/04 11:03:25;;;;;;;18.63;2.85;;;10.70;99.90;;;;;;5007352;28;20084;-71
2023/02/04 11:05:54;;;;;;;13.50;2.05;;;10.70;99.90;;;;;;5009411;28;20049;-72
2023/02/04 11:08:21;;;;;;;18.55;2.72;;;10.70;99.90;;;;;;5008264;28;20038;-71
2023/02/04 11:11:00;;;;;;;14.70;2.63;;;10.70;99.90;;;;;;5009006;28;20372;-71
2023/02/04 11:13:38;;;;;;;26.98;3.47;;;10.60;99.90;;;;;;5008662;28;20456;-71
2023/02/04 11:16:10;;;;;;;18.52;3.38;;;10.60;99.90;;;;;;5007526;28;20784;-71
2023/02/04 11:18:50;;;;;;;16.65;3.08;;;10.60;99.90;;;;;;5008864;28;20048;-71
2023/02/04 11:21:24;;;;;;;20.38;3.08;;;10.60;99.90;;;;;;5005254;28;20409;-71
2023/02/04 11:24:22;;;;;;;24.63;5.28;;;10.60;99.90;;;;;;4997374;28;20061;-72
2023/02/04 11:26:51;;;;;;;15.85;2.40;;;10.70;99.90;;;;;;5007039;28;20034;-70
2023/02/04 11:29:33;;;;;;;14.32;3.88;;;10.80;99.90;;;;;;5006884;28;20038;-71
2023/02/04 11:32:22;;;;;;;20.85;2.78;;;10.80;99.90;;;;;;5001202;28;20513;-71
2023/02/04 11:34:51;;;;;;;17.92;3.08;;;10.80;99.90;;;;;;5003661;28;20049;-70
2023/02/04 11:37:32;;;;;;;12.32;2.58;;;10.80;99.90;;;;;;5007124;28;20441;-71
2023/02/04 11:39:58;;;;;;;;;;;10.80;99.90;;;;;;5008149;28;20041;-71
2023/02/04 11:42:41;;;;;;;16.15;2.38;;;10.80;99.90;;;;;;5006709;28;19919;-71
2023/02/04 11:45:32;;;;;;;13.73;2.03;;;11.00;99.90;;;;;;5007157;28;20052;-72
2023/02/04 11:48:08;;;;;;;16.13;2.80;;;11.10;99.90;;;;;;5007275;28;20573;-71
2023/02/04 11:50:37;;;;;;;11.05;2.10;;;11.10;99.90;;;;;;5007097;28;20526;-72
2023/02/04 11:53:03;;;;;;;11.77;2.17;;;11.10;99.90;;;;;;5007010;28;20040;-73
2023/02/04 11:55:35;;;;;;;13.43;1.85;;;11.10;99.90;;;;;;5006788;28;20030;-71
2023/02/04 11:58:00;;;;;;;12.57;2.85;;;11.00;99.90;;;;;;5008546;28;20137;-71
2023/02/04 12:00:29;;;;;;;16.88;2.47;;;10.90;99.90;;;;;;5007285;28;20586;-71
2023/02/04 12:03:10;;;;;;;15.13;2.17;;;10.90;99.90;;;;;;5008507;28;20034;-71
2023/02/04 12:05:42;;;;;;;17.65;3.10;;;10.90;99.90;;;;;;5007488;28;20037;-71
2023/02/04 12:08:23;;;;;;;20.10;2.95;;;11.00;99.90;;;;;;5005158;28;20034;-71
2023/02/04 12:11:10;;;;;;;9.55;1.73;;;11.00;99.90;;;;;;5004868;28;20069;-71
2023/02/04 12:13:55;;;;;;;16.80;2.20;;;11.00;99.90;;;;;;4998449;28;20111;-71
2023/02/04 12:16:21;;;;;;;9.88;1.33;;;11.10;99.90;;;;;;5004713;28;20589;-71
2023/02/04 12:18:47;;;;;;;9.88;1.38;;;11.20;99.90;;;;;;5006656;28;20549;-72
2023/02/04 12:21:13;;;;;;;12.13;1.63;;;11.10;99.90;;;;;;5007847;28;20410;-72
2023/02/04 12:23:41;;;;;;;10.93;1.50;;;11.10;99.90;;;;;;5007387;28;20026;-70
2023/02/04 12:26:07;;;;;;;10.25;1.30;;;11.10;99.90;;;;;;5010471;28;20489;-71
2023/02/04 12:28:33;;;;;;;4.32;1.27;;;10.90;99.90;;;;;;5003931;28;20053;-71
2023/02/04 12:30:58;;;;;;;18.58;1.77;;;10.80;99.90;;;;;;5008897;28;20030;-70
2023/02/04 12:33:24;;;;;;;12.88;2.35;;;10.80;99.90;;;;;;5007378;28;20080;-71
2023/02/04 12:35:50;;;;;;;10.68;1.48;;;10.70;99.90;;;;;;5007921;28;20443;-71
2023/02/04 12:38:16;;;;;;;8.43;1.15;;;10.70;99.90;;;;;;5007284;28;20497;-71
2023/02/04 12:40:41;;;;;;;8.52;1.67;;;10.60;99.90;;;;;;5007555;28;20073;-71
2023/02/04 12:43:07;;;;;;;8.73;1.45;;;10.60;99.90;;;;;;5001764;28;20061;-71
2023/02/04 12:45:33;;;;;;;13.57;1.60;;;10.60;99.90;;;;;;5007265;28;20042;-70
2023/02/04 12:47:59;;;;;;;9.73;1.65;;;10.70;99.90;;;;;;5007558;28;20053;-71